McArthur, Ohio
Current Conditions -  °F | °C
As of 5:55 PM on Wednesday 26 Nov 2014 (Local Time) from KUNI Reporting Station
Overcast Overcast  
Wind Chill: 38°   Ceiling: 3400
Heat Index: 41°   Visibility: 10mi
Dew Point: 29°   Wind: 5mph
Humidity: 63%   Direction: 330°NNW
Pressure: 30.02"   Gusts: NA
Location:  39.25°N, 82.48°W
Report Text: KUNI 262255Z AUTO 33004KT 10SM BKN034 OVC046 05/M02 A3002 RMK AO2 T00501016
Loading
Personal Weather Stations






























Interactive Weather Map New forecast layout! Learn more

10-Day Weather Forecast

Advertisements
Track Severe Weather on mobile